This is the latest recevied weather packets stored in our database for station/object ED2YAA-10. If no packets are shown the sender has not sent any weather packets the latest 10 day(s).
| Time | Temp. | Humidity | Pressure | Rain* | Wind** | Luminosity | Snow |
|---|---|---|---|---|---|---|---|
| 1777903907 | 21.67° C | 40% | 926.7 hPa | - | - | - | - |
| 1777903006 | 22.22° C | 40% | 926.8 hPa | - | - | - | - |
| 1777902106 | 22.22° C | 39% | 926.9 hPa | - | - | - | - |
| 1777901206 | 25.56° C | 35% | 927 hPa | - | - | - | - |
| 1777900301 | 15° C | 51% | 926.8 hPa | - | - | - | - |
| 1777899404 | 21.11° C | 41% | 926.7 hPa | - | - | - | - |
| 1777898504 | 21.11° C | 41% | 926.9 hPa | - | - | - | - |
| 1777897604 | 21.11° C | 41% | 927.1 hPa | - | - | - | - |
| 1777896704 | 21.11° C | 41% | 927 hPa | - | - | - | - |
| 1777895804 | 21.11° C | 41% | 927 hPa | - | - | - | - |
| 1777894904 | 20.56° C | 42% | 927 hPa | - | - | - | - |
| 1777894004 | 21.11° C | 42% | 927.1 hPa | - | - | - | - |
| 1777893104 | 21.11° C | 42% | 926.9 hPa | - | - | - | - |
| 1777892204 | 21.11° C | 42% | 926.9 hPa | - | - | - | - |
| 1777891304 | 20.56° C | 42% | 927 hPa | - | - | - | - |
| 1777890404 | 20.56° C | 42% | 927 hPa | - | - | - | - |
| 1777889504 | 20.56° C | 42% | 926.9 hPa | - | - | - | - |
| 1777888599 | 20.56° C | 42% | 926.9 hPa | - | - | - | - |
| 1777887699 | 20.56° C | 42% | 926.8 hPa | - | - | - | - |
| 1777886799 | 20.56° C | 42% | 926.8 hPa | - | - | - | - |
| 1777885898 | 20° C | 42% | 926.7 hPa | - | - | - | - |
| 1777884999 | 20° C | 42% | 926.6 hPa | - | - | - | - |
| 1777884099 | 19.44° C | 42% | 926.6 hPa | - | - | - | - |
| 1777883199 | 19.44° C | 42% | 926.3 hPa | - | - | - | - |
| 1777882294 | 19.44° C | 42% | 926.5 hPa | - | - | - | - |
* Rain since midnight (hover to see other rain measurements)
** Current wind speed in m/s (hover to see current wind gust speed)